sensor_id;sensor_type;location;lat;lon;timestamp;pressure;altitude;pressure_sealevel;temperature;humidity
39443;BME280;25147;52.142;9.960;2023-12-04T00:01:25;100908.91;;;-2.19;100.00
39443;BME280;25147;52.142;9.960;2023-12-04T00:03:54;100919.22;;;-2.18;100.00
39443;BME280;25147;52.142;9.960;2023-12-04T00:06:21;100937.84;;;-2.03;100.00
39443;BME280;25147;52.142;9.960;2023-12-04T00:08:47;100818.66;;;-2.71;100.00
39443;BME280;25147;52.142;9.960;2023-12-04T00:11:14;100944.94;;;-1.97;100.00
39443;BME280;25147;52.142;9.960;2023-12-04T00:13:41;100950.06;;;-1.97;100.00
39443;BME280;25147;52.142;9.960;2023-12-04T00:16:08;100886.44;;;-2.25;100.00
39443;BME280;25147;52.142;9.960;2023-12-04T00:18:35;100909.88;;;-2.17;100.00
39443;BME280;25147;52.142;9.960;2023-12-04T00:21:04;100946.81;;;-1.93;100.00
39443;BME280;25147;52.142;9.960;2023-12-04T00:23:31;100917.31;;;-2.03;100.00
39443;BME280;25147;52.142;9.960;2023-12-04T00:25:58;100821.03;;;-2.56;100.00
39443;BME280;25147;52.142;9.960;2023-12-04T00:28:24;100900.91;;;-2.06;100.00
39443;BME280;25147;52.142;9.960;2023-12-04T00:30:51;100917.66;;;-1.95;100.00
39443;BME280;25147;52.142;9.960;2023-12-04T00:33:18;100873.13;;;-2.16;100.00
39443;BME280;25147;52.142;9.960;2023-12-04T00:35:45;100905.50;;;-1.99;100.00
39443;BME280;25147;52.142;9.960;2023-12-04T00:38:13;100898.19;;;-1.90;100.00
39443;BME280;25147;52.142;9.960;2023-12-04T00:40:39;100898.25;;;-1.88;100.00
39443;BME280;25147;52.142;9.960;2023-12-04T00:43:06;100610.22;;;-3.54;100.00
39443;BME280;25147;52.142;9.960;2023-12-04T00:45:33;100873.09;;;-1.97;100.00
39443;BME280;25147;52.142;9.960;2023-12-04T00:48:00;100883.00;;;-1.85;100.00
39443;BME280;25147;52.142;9.960;2023-12-04T00:50:27;100855.84;;;-2.01;100.00
39443;BME280;25147;52.142;9.960;2023-12-04T00:52:53;100816.34;;;-2.26;100.00
39443;BME280;25147;52.142;9.960;2023-12-04T00:55:22;100847.13;;;-2.05;100.00
39443;BME280;25147;52.142;9.960;2023-12-04T00:57:48;100723.13;;;-2.68;100.00
39443;BME280;25147;52.142;9.960;2023-12-04T01:00:15;100851.88;;;-1.93;100.00
39443;BME280;25147;52.142;9.960;2023-12-04T01:02:43;100845.91;;;-1.93;100.00
39443;BME280;25147;52.142;9.960;2023-12-04T01:05:09;100791.66;;;-2.22;100.00
39443;BME280;25147;52.142;9.960;2023-12-04T01:07:36;100840.63;;;-1.96;100.00
39443;BME280;25147;52.142;9.960;2023-12-04T01:10:03;100796.69;;;-2.25;100.00
39443;BME280;25147;52.142;9.960;2023-12-04T01:12:32;100830.75;;;-1.87;100.00
39443;BME280;25147;52.142;9.960;2023-12-04T01:14:58;100838.47;;;-1.86;100.00
39443;BME280;25147;52.142;9.960;2023-12-04T01:17:25;100808.56;;;-2.06;100.00
39443;BME280;25147;52.142;9.960;2023-12-04T01:19:52;100786.69;;;-2.19;100.00
39443;BME280;25147;52.142;9.960;2023-12-04T01:22:19;100819.72;;;-1.85;100.00
39443;BME280;25147;52.142;9.960;2023-12-04T01:24:46;100781.13;;;-2.09;100.00
39443;BME280;25147;52.142;9.960;2023-12-04T01:27:13;100784.38;;;-2.13;100.00
39443;BME280;25147;52.142;9.960;2023-12-04T01:29:41;100791.63;;;-2.03;100.00
39443;BME280;25147;52.142;9.960;2023-12-04T01:32:07;100825.03;;;-1.80;100.00
39443;BME280;25147;52.142;9.960;2023-12-04T01:34:34;100833.66;;;-1.78;100.00
39443;BME280;25147;52.142;9.960;2023-12-04T01:37:01;100822.66;;;-1.75;100.00
39443;BME280;25147;52.142;9.960;2023-12-04T01:39:28;100604.31;;;-3.12;100.00
39443;BME280;25147;52.142;9.960;2023-12-04T01:41:54;100826.16;;;-1.73;100.00
39443;BME280;25147;52.142;9.960;2023-12-04T01:44:21;100789.72;;;-1.86;100.00
39443;BME280;25147;52.142;9.960;2023-12-04T01:46:49;100692.69;;;-2.39;100.00
39443;BME280;25147;52.142;9.960;2023-12-04T01:49:16;100755.78;;;-2.01;100.00
39443;BME280;25147;52.142;9.960;2023-12-04T01:51:46;100796.03;;;-1.77;100.00
39443;BME280;25147;52.142;9.960;2023-12-04T01:54:13;100776.91;;;-1.86;100.00
39443;BME280;25147;52.142;9.960;2023-12-04T01:56:40;100718.63;;;-2.11;100.00
39443;BME280;25147;52.142;9.960;2023-12-04T01:59:07;100790.53;;;-1.66;100.00
39443;BME280;25147;52.142;9.960;2023-12-04T02:01:35;100764.31;;;-1.79;100.00
39443;BME280;25147;52.142;9.960;2023-12-04T02:04:04;100648.88;;;-2.46;100.00
39443;BME280;25147;52.142;9.960;2023-12-04T02:06:32;100771.69;;;-1.66;100.00
39443;BME280;25147;52.142;9.960;2023-12-04T02:09:00;100768.25;;;-1.67;100.00
39443;BME280;25147;52.142;9.960;2023-12-04T02:11:28;100766.50;;;-1.68;100.00
39443;BME280;25147;52.142;9.960;2023-12-04T02:13:55;100759.66;;;-1.67;100.00
39443;BME280;25147;52.142;9.960;2023-12-04T02:16:23;100743.91;;;-1.76;100.00
39443;BME280;25147;52.142;9.960;2023-12-04T02:18:51;100701.28;;;-1.95;100.00
39443;BME280;25147;52.142;9.960;2023-12-04T02:21:19;100728.97;;;-1.87;100.00
39443;BME280;25147;52.142;9.960;2023-12-04T02:23:49;100739.94;;;-1.68;100.00
39443;BME280;25147;52.142;9.960;2023-12-04T02:26:18;100683.94;;;-2.01;100.00
39443;BME280;25147;52.142;9.960;2023-12-04T02:29:01;100731.38;;;-1.69;100.00
39443;BME280;25147;52.142;9.960;2023-12-04T02:31:31;100720.91;;;-1.73;100.00
39443;BME280;25147;52.142;9.960;2023-12-04T02:34:00;100717.50;;;-1.74;100.00
39443;BME280;25147;52.142;9.960;2023-12-04T02:36:29;100683.50;;;-1.91;100.00
39443;BME280;25147;52.142;9.960;2023-12-04T02:38:58;100712.34;;;-1.74;100.00
39443;BME280;25147;52.142;9.960;2023-12-04T02:41:25;100665.00;;;-2.05;100.00
39443;BME280;25147;52.142;9.960;2023-12-04T02:43:53;100710.47;;;-1.78;100.00
39443;BME280;25147;52.142;9.960;2023-12-04T02:46:19;100676.56;;;-1.93;100.00
39443;BME280;25147;52.142;9.960;2023-12-04T02:48:46;100665.06;;;-2.03;100.00
39443;BME280;25147;52.142;9.960;2023-12-04T02:51:13;100627.75;;;-2.17;100.00
39443;BME280;25147;52.142;9.960;2023-12-04T02:53:39;100661.81;;;-1.99;100.00
39443;BME280;25147;52.142;9.960;2023-12-04T02:56:09;100628.16;;;-2.07;100.00
39443;BME280;25147;52.142;9.960;2023-12-04T02:58:36;100675.41;;;-1.79;100.00
39443;BME280;25147;52.142;9.960;2023-12-04T03:01:03;100661.78;;;-1.76;100.00
39443;BME280;25147;52.142;9.960;2023-12-04T03:03:30;100645.34;;;-1.82;100.00
39443;BME280;25147;52.142;9.960;2023-12-04T03:05:56;100609.78;;;-1.95;100.00
39443;BME280;25147;52.142;9.960;2023-12-04T03:08:23;100568.81;;;-2.16;100.00
39443;BME280;25147;52.142;9.960;2023-12-04T03:10:50;100657.28;;;-1.59;100.00
39443;BME280;25147;52.142;9.960;2023-12-04T03:13:18;100576.03;;;-2.06;100.00
39443;BME280;25147;52.142;9.960;2023-12-04T03:15:45;100642.50;;;-1.65;100.00
39443;BME280;25147;52.142;9.960;2023-12-04T03:18:11;100645.53;;;-1.53;100.00
39443;BME280;25147;52.142;9.960;2023-12-04T03:20:38;100623.69;;;-1.66;100.00
39443;BME280;25147;52.142;9.960;2023-12-04T03:23:05;100665.41;;;-1.47;100.00
39443;BME280;25147;52.142;9.960;2023-12-04T03:25:31;100664.63;;;-1.46;100.00
39443;BME280;25147;52.142;9.960;2023-12-04T03:27:58;100655.28;;;-1.44;100.00
39443;BME280;25147;52.142;9.960;2023-12-04T03:30:26;100620.91;;;-1.72;100.00
39443;BME280;25147;52.142;9.960;2023-12-04T03:32:53;100590.75;;;-1.77;100.00
39443;BME280;25147;52.142;9.960;2023-12-04T03:35:20;100561.34;;;-1.87;100.00
39443;BME280;25147;52.142;9.960;2023-12-04T03:37:47;100447.84;;;-2.52;100.00
39443;BME280;25147;52.142;9.960;2023-12-04T03:40:15;100637.69;;;-1.33;100.00
39443;BME280;25147;52.142;9.960;2023-12-04T03:42:41;100615.00;;;-1.45;100.00
39443;BME280;25147;52.142;9.960;2023-12-04T03:45:09;100603.00;;;-1.46;100.00
39443;BME280;25147;52.142;9.960;2023-12-04T03:47:37;100633.69;;;-1.25;100.00
39443;BME280;25147;52.142;9.960;2023-12-04T03:50:05;100623.47;;;-1.24;100.00
39443;BME280;25147;52.142;9.960;2023-12-04T03:52:32;100620.75;;;-1.28;100.00
39443;BME280;25147;52.142;9.960;2023-12-04T03:54:58;100596.44;;;-1.38;100.00
39443;BME280;25147;52.142;9.960;2023-12-04T03:57:25;100572.28;;;-1.43;100.00
39443;BME280;25147;52.142;9.960;2023-12-04T03:59:52;100613.91;;;-1.28;100.00
39443;BME280;25147;52.142;9.960;2023-12-04T04:02:18;100598.50;;;-1.28;100.00
39443;BME280;25147;52.142;9.960;2023-12-04T04:04:47;100534.50;;;-1.71;100.00
39443;BME280;25147;52.142;9.960;2023-12-04T04:07:15;100609.50;;;-1.32;100.00
39443;BME280;25147;52.142;9.960;2023-12-04T04:09:43;100607.28;;;-1.21;100.00
39443;BME280;25147;52.142;9.960;2023-12-04T04:12:09;100510.47;;;-1.73;100.00
39443;BME280;25147;52.142;9.960;2023-12-04T04:14:36;100494.06;;;-1.78;100.00
39443;BME280;25147;52.142;9.960;2023-12-04T04:17:03;100579.66;;;-1.28;100.00
39443;BME280;25147;52.142;9.960;2023-12-04T04:19:30;100565.97;;;-1.27;100.00
39443;BME280;25147;52.142;9.960;2023-12-04T04:21:58;100561.91;;;-1.21;100.00
39443;BME280;25147;52.142;9.960;2023-12-04T04:24:25;100549.72;;;-1.28;100.00
39443;BME280;25147;52.142;9.960;2023-12-04T04:26:52;100533.88;;;-1.40;100.00
39443;BME280;25147;52.142;9.960;2023-12-04T04:29:18;100549.38;;;-1.37;100.00
39443;BME280;25147;52.142;9.960;2023-12-04T04:31:45;100553.75;;;-1.34;100.00
39443;BME280;25147;52.142;9.960;2023-12-04T04:34:12;100555.72;;;-1.27;100.00
39443;BME280;25147;52.142;9.960;2023-12-04T04:36:38;100545.56;;;-1.24;100.00
39443;BME280;25147;52.142;9.960;2023-12-04T04:39:07;100515.78;;;-1.43;100.00
39443;BME280;25147;52.142;9.960;2023-12-04T04:41:33;100553.50;;;-1.16;100.00
39443;BME280;25147;52.142;9.960;2023-12-04T04:44:00;100537.66;;;-1.29;100.00
39443;BME280;25147;52.142;9.960;2023-12-04T04:46:27;100468.16;;;-1.60;100.00
39443;BME280;25147;52.142;9.960;2023-12-04T04:48:53;100525.00;;;-1.24;100.00
39443;BME280;25147;52.142;9.960;2023-12-04T04:51:21;100474.16;;;-1.60;100.00
39443;BME280;25147;52.142;9.960;2023-12-04T04:53:47;100521.47;;;-1.28;100.00
39443;BME280;25147;52.142;9.960;2023-12-04T04:56:17;100530.09;;;-1.26;100.00
39443;BME280;25147;52.142;9.960;2023-12-04T04:58:43;100524.31;;;-1.18;100.00
39443;BME280;25147;52.142;9.960;2023-12-04T05:01:10;100534.03;;;-1.10;100.00
39443;BME280;25147;52.142;9.960;2023-12-04T05:03:37;100452.06;;;-1.55;100.00
39443;BME280;25147;52.142;9.960;2023-12-04T05:06:04;100491.25;;;-1.35;100.00
39443;BME280;25147;52.142;9.960;2023-12-04T05:08:31;100507.13;;;-1.21;100.00
39443;BME280;25147;52.142;9.960;2023-12-04T05:10:58;100479.38;;;-1.31;100.00
39443;BME280;25147;52.142;9.960;2023-12-04T05:13:26;100455.94;;;-1.42;100.00
39443;BME280;25147;52.142;9.960;2023-12-04T05:15:52;100485.78;;;-1.18;100.00
39443;BME280;25147;52.142;9.960;2023-12-04T05:18:19;100485.69;;;-1.22;100.00
39443;BME280;25147;52.142;9.960;2023-12-04T05:20:46;100517.31;;;-0.97;100.00
39443;BME280;25147;52.142;9.960;2023-12-04T05:23:13;100500.34;;;-1.19;100.00
39443;BME280;25147;52.142;9.960;2023-12-04T05:25:40;100494.59;;;-1.12;100.00
39443;BME280;25147;52.142;9.960;2023-12-04T05:28:07;100448.22;;;-1.42;100.00
39443;BME280;25147;52.142;9.960;2023-12-04T05:30:35;100476.03;;;-1.29;100.00
39443;BME280;25147;52.142;9.960;2023-12-04T05:33:02;100507.75;;;-1.01;100.00
39443;BME280;25147;52.142;9.960;2023-12-04T05:35:29;100532.06;;;-0.91;100.00
39443;BME280;25147;52.142;9.960;2023-12-04T05:37:59;100506.91;;;-1.02;100.00
39443;BME280;25147;52.142;9.960;2023-12-04T05:40:26;100505.13;;;-1.03;100.00
39443;BME280;25147;52.142;9.960;2023-12-04T05:42:52;100508.00;;;-0.93;100.00
39443;BME280;25147;52.142;9.960;2023-12-04T05:45:19;100453.66;;;-1.33;100.00
39443;BME280;25147;52.142;9.960;2023-12-04T05:47:47;100464.16;;;-1.25;100.00
39443;BME280;25147;52.142;9.960;2023-12-04T05:50:14;100479.16;;;-1.12;99.85
39443;BME280;25147;52.142;9.960;2023-12-04T05:52:41;100517.38;;;-0.94;100.00
39443;BME280;25147;52.142;9.960;2023-12-04T05:55:09;100419.78;;;-1.48;100.00
39443;BME280;25147;52.142;9.960;2023-12-04T05:57:38;100510.59;;;-0.93;100.00
39443;BME280;25147;52.142;9.960;2023-12-04T06:00:05;100494.06;;;-1.02;100.00
39443;BME280;25147;52.142;9.960;2023-12-04T06:02:38;100488.91;;;-1.02;99.14
39443;BME280;25147;52.142;9.960;2023-12-04T06:05:09;100494.25;;;-0.95;98.99
39443;BME280;25147;52.142;9.960;2023-12-04T06:07:36;100486.16;;;-1.06;99.01
39443;BME280;25147;52.142;9.960;2023-12-04T06:10:05;100463.75;;;-1.12;98.82
39443;BME280;25147;52.142;9.960;2023-12-04T06:12:33;100475.16;;;-1.04;98.47
39443;BME280;25147;52.142;9.960;2023-12-04T06:15:00;100468.19;;;-1.06;98.18
39443;BME280;25147;52.142;9.960;2023-12-04T06:17:27;100388.06;;;-1.50;98.79
39443;BME280;25147;52.142;9.960;2023-12-04T06:19:54;100457.44;;;-1.22;99.25
39443;BME280;25147;52.142;9.960;2023-12-04T06:22:23;100441.66;;;-1.34;99.07
39443;BME280;25147;52.142;9.960;2023-12-04T06:24:50;100477.59;;;-1.07;98.33
39443;BME280;25147;52.142;9.960;2023-12-04T06:27:18;100466.41;;;-1.09;97.93
39443;BME280;25147;52.142;9.960;2023-12-04T06:29:46;100427.44;;;-1.23;98.37
39443;BME280;25147;52.142;9.960;2023-12-04T06:32:14;100420.25;;;-1.33;98.19
39443;BME280;25147;52.142;9.960;2023-12-04T06:34:41;100481.94;;;-1.06;97.94
39443;BME280;25147;52.142;9.960;2023-12-04T06:37:10;100479.38;;;-1.04;97.03
39443;BME280;25147;52.142;9.960;2023-12-04T06:39:40;100447.31;;;-1.17;97.49
39443;BME280;25147;52.142;9.960;2023-12-04T06:42:08;100461.25;;;-1.09;96.27
39443;BME280;25147;52.142;9.960;2023-12-04T06:44:35;100483.06;;;-0.96;95.88
39443;BME280;25147;52.142;9.960;2023-12-04T06:47:03;100443.41;;;-1.04;95.26
39443;BME280;25147;52.142;9.960;2023-12-04T06:49:32;100421.56;;;-1.18;95.60
39443;BME280;25147;52.142;9.960;2023-12-04T06:51:59;100425.91;;;-1.17;95.79
39443;BME280;25147;52.142;9.960;2023-12-04T06:54:26;100462.63;;;-0.93;95.39
39443;BME280;25147;52.142;9.960;2023-12-04T06:56:54;100369.38;;;-1.46;94.99
39443;BME280;25147;52.142;9.960;2023-12-04T06:59:21;100466.16;;;-0.89;94.71
39443;BME280;25147;52.142;9.960;2023-12-04T07:01:48;100409.47;;;-1.23;94.45
39443;BME280;25147;52.142;9.960;2023-12-04T07:04:15;100463.53;;;-0.91;95.29
39443;BME280;25147;52.142;9.960;2023-12-04T07:06:46;100468.63;;;-0.92;95.84
39443;BME280;25147;52.142;9.960;2023-12-04T07:09:14;100468.56;;;-0.95;95.41
39443;BME280;25147;52.142;9.960;2023-12-04T07:11:42;100471.00;;;-0.98;95.92
39443;BME280;25147;52.142;9.960;2023-12-04T07:14:11;100473.53;;;-1.00;96.13
39443;BME280;25147;52.142;9.960;2023-12-04T07:16:41;100467.13;;;-1.13;95.99
39443;BME280;25147;52.142;9.960;2023-12-04T07:19:08;100441.84;;;-1.28;96.10
39443;BME280;25147;52.142;9.960;2023-12-04T07:21:35;100419.72;;;-1.50;96.50
39443;BME280;25147;52.142;9.960;2023-12-04T07:24:03;100428.50;;;-1.43;95.81
39443;BME280;25147;52.142;9.960;2023-12-04T07:26:32;100468.38;;;-1.27;96.06
39443;BME280;25147;52.142;9.960;2023-12-04T07:28:59;100473.84;;;-1.16;96.57
39443;BME280;25147;52.142;9.960;2023-12-04T07:31:27;100486.97;;;-1.09;96.37
39443;BME280;25147;52.142;9.960;2023-12-04T07:33:54;100450.28;;;-1.32;96.91
39443;BME280;25147;52.142;9.960;2023-12-04T07:36:21;100481.38;;;-1.23;97.16
39443;BME280;25147;52.142;9.960;2023-12-04T07:38:49;100496.38;;;-1.09;96.97
39443;BME280;25147;52.142;9.960;2023-12-04T07:41:17;100478.97;;;-1.18;97.30
39443;BME280;25147;52.142;9.960;2023-12-04T07:43:44;100494.59;;;-1.10;97.33
39443;BME280;25147;52.142;9.960;2023-12-04T07:46:11;100477.84;;;-1.26;97.47
39443;BME280;25147;52.142;9.960;2023-12-04T07:48:40;100501.50;;;-1.09;97.20
39443;BME280;25147;52.142;9.960;2023-12-04T07:51:09;100433.56;;;-1.45;97.35
39443;BME280;25147;52.142;9.960;2023-12-04T07:53:35;100501.31;;;-1.15;97.78
39443;BME280;25147;52.142;9.960;2023-12-04T07:56:03;100478.13;;;-1.17;97.27
39443;BME280;25147;52.142;9.960;2023-12-04T07:58:30;100467.34;;;-1.32;97.15
39443;BME280;25147;52.142;9.960;2023-12-04T08:00:57;100483.47;;;-1.11;97.85
39443;BME280;25147;52.142;9.960;2023-12-04T08:03:23;100478.06;;;-1.18;98.86
39443;BME280;25147;52.142;9.960;2023-12-04T08:05:52;100381.44;;;-1.69;98.15
39443;BME280;25147;52.142;9.960;2023-12-04T08:08:18;100442.66;;;-1.29;99.17
39443;BME280;25147;52.142;9.960;2023-12-04T08:10:47;100452.38;;;-1.20;99.77
39443;BME280;25147;52.142;9.960;2023-12-04T08:13:14;100433.22;;;-1.30;99.17
39443;BME280;25147;52.142;9.960;2023-12-04T08:15:41;100449.81;;;-1.18;99.56
39443;BME280;25147;52.142;9.960;2023-12-04T08:18:08;100438.59;;;-1.22;99.35
39443;BME280;25147;52.142;9.960;2023-12-04T08:20:35;100453.50;;;-1.10;98.75
39443;BME280;25147;52.142;9.960;2023-12-04T08:23:05;100469.34;;;-0.96;98.42
39443;BME280;25147;52.142;9.960;2023-12-04T08:25:32;100421.53;;;-1.20;98.63
39443;BME280;25147;52.142;9.960;2023-12-04T08:27:59;100418.25;;;-1.16;99.01
39443;BME280;25147;52.142;9.960;2023-12-04T08:30:26;100386.94;;;-1.31;98.43
39443;BME280;25147;52.142;9.960;2023-12-04T08:32:53;100453.31;;;-0.89;98.15
39443;BME280;25147;52.142;9.960;2023-12-04T08:35:20;100270.13;;;-2.00;98.08
39443;BME280;25147;52.142;9.960;2023-12-04T08:37:52;99991.13;;;-3.76;96.83
39443;BME280;25147;52.142;9.960;2023-12-04T08:40:20;100283.72;;;-1.75;97.10
39443;BME280;25147;52.142;9.960;2023-12-04T08:42:47;100432.88;;;-0.85;96.64
39443;BME280;25147;52.142;9.960;2023-12-04T08:45:14;100353.31;;;-1.39;96.58
39443;BME280;25147;52.142;9.960;2023-12-04T08:47:40;100381.75;;;-1.04;96.11
39443;BME280;25147;52.142;9.960;2023-12-04T08:50:07;100399.38;;;-0.88;95.71
39443;BME280;25147;52.142;9.960;2023-12-04T08:52:34;100395.16;;;-0.86;94.91
39443;BME280;25147;52.142;9.960;2023-12-04T08:55:03;100425.66;;;-0.68;94.81
39443;BME280;25147;52.142;9.960;2023-12-04T08:57:32;100396.16;;;-0.81;94.20
39443;BME280;25147;52.142;9.960;2023-12-04T08:59:59;100400.75;;;-0.70;94.69
39443;BME280;25147;52.142;9.960;2023-12-04T09:02:26;100397.94;;;-0.78;93.50
39443;BME280;25147;52.142;9.960;2023-12-04T09:04:53;100374.09;;;-0.74;93.48
39443;BME280;25147;52.142;9.960;2023-12-04T09:07:20;100403.06;;;-0.49;93.41
39443;BME280;25147;52.142;9.960;2023-12-04T09:09:46;100371.75;;;-0.66;93.10
39443;BME280;25147;52.142;9.960;2023-12-04T09:12:13;100409.22;;;-0.44;93.28
39443;BME280;25147;52.142;9.960;2023-12-04T09:14:42;100395.59;;;-0.40;92.92
39443;BME280;25147;52.142;9.960;2023-12-04T09:17:13;100318.91;;;-0.87;91.89
39443;BME280;25147;52.142;9.960;2023-12-04T09:19:39;100412.81;;;-0.37;91.45
39443;BME280;25147;52.142;9.960;2023-12-04T09:22:06;100385.00;;;-0.52;91.55
39443;BME280;25147;52.142;9.960;2023-12-04T09:24:33;100360.84;;;-0.57;91.48
39443;BME280;25147;52.142;9.960;2023-12-04T09:27:00;100395.84;;;-0.31;90.96
39443;BME280;25147;52.142;9.960;2023-12-04T09:29:27;100382.00;;;-0.36;90.38
39443;BME280;25147;52.142;9.960;2023-12-04T09:31:55;100376.06;;;-0.33;90.09
39443;BME280;25147;52.142;9.960;2023-12-04T09:34:25;100394.34;;;-0.24;89.45
39443;BME280;25147;52.142;9.960;2023-12-04T09:36:52;100330.03;;;-0.56;89.30
39443;BME280;25147;52.142;9.960;2023-12-04T09:39:19;100389.94;;;-0.28;88.81
39443;BME280;25147;52.142;9.960;2023-12-04T09:41:46;100390.28;;;-0.16;88.71
39443;BME280;25147;52.142;9.960;2023-12-04T09:44:13;100392.00;;;-0.15;87.82
39443;BME280;25147;52.142;9.960;2023-12-04T09:46:42;100387.72;;;-0.14;88.54
39443;BME280;25147;52.142;9.960;2023-12-04T09:49:13;100332.19;;;-0.39;88.36
39443;BME280;25147;52.142;9.960;2023-12-04T09:51:45;100317.50;;;-0.44;88.48
39443;BME280;25147;52.142;9.960;2023-12-04T09:54:12;100291.47;;;-0.56;88.72
39443;BME280;25147;52.142;9.960;2023-12-04T09:56:39;100365.59;;;-0.08;88.83
39443;BME280;25147;52.142;9.960;2023-12-04T09:59:07;100365.63;;;-0.06;88.00
39443;BME280;25147;52.142;9.960;2023-12-04T10:01:35;100352.38;;;-0.22;87.75
39443;BME280;25147;52.142;9.960;2023-12-04T10:04:03;100342.16;;;-0.18;87.71
39443;BME280;25147;52.142;9.960;2023-12-04T10:06:33;100341.38;;;-0.16;87.86
39443;BME280;25147;52.142;9.960;2023-12-04T10:09:00;100379.53;;;0.01;88.01
39443;BME280;25147;52.142;9.960;2023-12-04T10:11:28;100366.53;;;-0.04;87.75
39443;BME280;25147;52.142;9.960;2023-12-04T10:13:56;100358.19;;;0.05;87.86
39443;BME280;25147;52.142;9.960;2023-12-04T10:16:33;100330.03;;;-0.23;88.02
39443;BME280;25147;52.142;9.960;2023-12-04T10:19:23;100360.03;;;0.09;88.46
39443;BME280;25147;52.142;9.960;2023-12-04T10:21:54;100290.47;;;-0.28;87.41
39443;BME280;25147;52.142;9.960;2023-12-04T10:24:31;100286.47;;;-0.16;88.17
39443;BME280;25147;52.142;9.960;2023-12-04T10:26:59;100315.25;;;0.04;87.13
39443;BME280;25147;52.142;9.960;2023-12-04T10:29:27;100224.81;;;-0.48;86.90
39443;BME280;25147;52.142;9.960;2023-12-04T10:31:55;100284.13;;;-0.07;87.92
39443;BME280;25147;52.142;9.960;2023-12-04T10:34:26;100281.63;;;-0.04;87.12
39443;BME280;25147;52.142;9.960;2023-12-04T10:37:00;100253.91;;;-0.14;86.47
39443;BME280;25147;52.142;9.960;2023-12-04T10:39:30;100311.56;;;0.27;86.03
39443;BME280;25147;52.142;9.960;2023-12-04T10:42:01;100260.09;;;-0.08;85.91
39443;BME280;25147;52.142;9.960;2023-12-04T10:44:30;100310.56;;;0.21;86.15
39443;BME280;25147;52.142;9.960;2023-12-04T10:47:00;100284.38;;;0.02;86.73
39443;BME280;25147;52.142;9.960;2023-12-04T10:49:30;100289.56;;;0.05;87.23
39443;BME280;25147;52.142;9.960;2023-12-04T10:52:02;100216.84;;;-0.24;87.05
39443;BME280;25147;52.142;9.960;2023-12-04T10:54:29;100124.25;;;-0.95;86.02
39443;BME280;25147;52.142;9.960;2023-12-04T10:57:00;100060.53;;;-1.09;85.59
39443;BME280;25147;52.142;9.960;2023-12-04T10:59:32;99879.88;;;-2.15;85.16
39443;BME280;25147;52.142;9.960;2023-12-04T11:02:06;99887.78;;;-2.06;85.84
39443;BME280;25147;52.142;9.960;2023-12-04T11:04:36;99864.25;;;-2.25;84.55
39443;BME280;25147;52.142;9.960;2023-12-04T11:07:05;100143.41;;;-0.48;85.19
39443;BME280;25147;52.142;9.960;2023-12-04T11:09:35;100014.13;;;-1.15;85.70
39443;BME280;25147;52.142;9.960;2023-12-04T11:12:06;100006.38;;;-1.18;85.79
39443;BME280;25147;52.142;9.960;2023-12-04T11:14:41;100012.44;;;-1.14;85.98
39443;BME280;25147;52.142;9.960;2023-12-04T11:17:12;100127.34;;;-0.37;85.36
39443;BME280;25147;52.142;9.960;2023-12-04T11:19:47;100029.94;;;-0.99;85.39
39443;BME280;25147;52.142;9.960;2023-12-04T11:22:17;99923.53;;;-1.46;84.42
39443;BME280;25147;52.142;9.960;2023-12-04T11:24:46;100231.69;;;0.26;84.10
39443;BME280;25147;52.142;9.960;2023-12-04T11:27:15;100076.44;;;-0.52;83.95
39443;BME280;25147;52.142;9.960;2023-12-04T11:29:42;100176.28;;;0.02;84.65
39443;BME280;25147;52.142;9.960;2023-12-04T11:32:13;100223.47;;;0.42;84.93
39443;BME280;25147;52.142;9.960;2023-12-04T11:34:47;100062.91;;;-0.44;84.37
39443;BME280;25147;52.142;9.960;2023-12-04T11:37:21;99851.13;;;-1.69;84.00
39443;BME280;25147;52.142;9.960;2023-12-04T11:39:53;99988.78;;;-1.01;83.69
39443;BME280;25147;52.142;9.960;2023-12-04T11:42:23;100090.84;;;-0.21;82.87
39443;BME280;25147;52.142;9.960;2023-12-04T11:44:55;100221.13;;;0.53;82.79
39443;BME280;25147;52.142;9.960;2023-12-04T11:47:23;100039.59;;;-0.51;82.86
39443;BME280;25147;52.142;9.960;2023-12-04T11:49:50;100129.03;;;-0.02;82.43
39443;BME280;25147;52.142;9.960;2023-12-04T11:52:16;100208.16;;;0.48;83.11
39443;BME280;25147;52.142;9.960;2023-12-04T11:54:58;99825.78;;;-1.91;82.66
39443;BME280;25147;52.142;9.960;2023-12-04T11:57:26;100125.50;;;-0.05;82.71
39443;BME280;25147;52.142;9.960;2023-12-04T12:00:13;99799.00;;;-2.03;82.29
39443;BME280;25147;52.142;9.960;2023-12-04T12:03:01;99971.81;;;-0.94;81.80
39443;BME280;25147;52.142;9.960;2023-12-04T12:05:32;99947.88;;;-0.92;81.58
39443;BME280;25147;52.142;9.960;2023-12-04T12:08:01;99925.44;;;-1.01;81.79
39443;BME280;25147;52.142;9.960;2023-12-04T12:10:30;99776.84;;;-1.99;81.74
39443;BME280;25147;52.142;9.960;2023-12-04T12:12:59;100077.38;;;-0.09;80.67
39443;BME280;25147;52.142;9.960;2023-12-04T12:15:32;99781.31;;;-1.90;80.21
39443;BME280;25147;52.142;9.960;2023-12-04T12:17:59;100126.72;;;0.11;80.75
39443;BME280;25147;52.142;9.960;2023-12-04T12:20:27;100151.34;;;0.40;81.37
39443;BME280;25147;52.142;9.960;2023-12-04T12:22:54;100147.84;;;0.37;81.25
39443;BME280;25147;52.142;9.960;2023-12-04T12:25:20;100152.22;;;0.41;81.45
39443;BME280;25147;52.142;9.960;2023-12-04T12:27:50;100152.28;;;0.44;81.52
39443;BME280;25147;52.142;9.960;2023-12-04T12:30:17;100171.19;;;0.46;80.82
39443;BME280;25147;52.142;9.960;2023-12-04T12:32:44;100139.03;;;0.26;81.42
39443;BME280;25147;52.142;9.960;2023-12-04T12:35:11;100154.63;;;0.33;82.40
39443;BME280;25147;52.142;9.960;2023-12-04T12:37:38;100112.25;;;0.17;81.88
39443;BME280;25147;52.142;9.960;2023-12-04T12:40:06;100142.56;;;0.31;81.93
39443;BME280;25147;52.142;9.960;2023-12-04T12:42:36;100123.50;;;0.21;81.92
39443;BME280;25147;52.142;9.960;2023-12-04T12:45:06;100158.38;;;0.48;81.68
39443;BME280;25147;52.142;9.960;2023-12-04T12:47:36;100143.75;;;0.47;81.46
39443;BME280;25147;52.142;9.960;2023-12-04T12:50:03;100142.06;;;0.47;81.19
39443;BME280;25147;52.142;9.960;2023-12-04T12:52:37;100094.31;;;0.21;81.50